Time;durP1;ratioP1;P1;durP2;ratioP2;P2;SDS_P1;SDS_P2;PMS_P1;PMS_P2;Temp;Humidity;BMP_temperature;BMP_pressure;BME280_temperature;BME280_humidity;BME280_pressure;Samples;Min_cycle;Max_cycle;Signal;HPM_P1;HPM_P2
2021/04/17 00:01:32;;;;;;;2.30;1.37;;;8.10;99.90;;;;;;4980471;29;20444;-55
2021/04/17 00:03:59;;;;;;;3.23;1.50;;;8.10;99.90;;;;;;4980173;29;20545;-54
2021/04/17 00:06:25;;;;;;;2.50;1.30;;;8.10;99.90;;;;;;4979802;28;20442;-55
2021/04/17 00:08:52;;;;;;;2.10;1.20;;;8.20;99.90;;;;;;4980376;29;20497;-55
2021/04/17 00:11:19;;;;;;;3.30;1.00;;;8.10;99.90;;;;;;4979824;29;20480;-55
2021/04/17 00:13:45;;;;;;;2.23;1.00;;;8.10;99.90;;;;;;4980120;29;20450;-53
2021/04/17 00:16:12;;;;;;;4.70;1.37;;;8.10;99.90;;;;;;4979918;29;20444;-55
2021/04/17 00:18:38;;;;;;;3.30;1.53;;;8.00;99.90;;;;;;4979818;29;20451;-54
2021/04/17 00:21:04;;;;;;;2.23;1.00;;;8.10;99.90;;;;;;4980038;29;20444;-56
2021/04/17 00:23:32;;;;;;;2.20;1.20;;;8.00;99.90;;;;;;4980429;29;20504;-56
2021/04/17 00:25:58;;;;;;;3.03;0.90;;;8.00;99.90;;;;;;4985074;28;20896;-56
2021/04/17 00:28:25;;;;;;;2.20;1.40;;;8.00;99.90;;;;;;4976856;28;20455;-51
2021/04/17 00:30:51;;;;;;;2.07;1.17;;;8.00;99.90;;;;;;4976431;28;20479;-50
2021/04/17 00:33:18;;;;;;;1.87;0.97;;;8.00;99.90;;;;;;4976485;28;20458;-51
2021/04/17 00:35:44;;;;;;;3.27;1.87;;;8.00;99.90;;;;;;4976382;28;20455;-52
2021/04/17 00:38:10;;;;;;;3.10;1.13;;;7.90;99.90;;;;;;4976451;28;20467;-50
2021/04/17 00:40:37;;;;;;;2.27;1.50;;;7.90;99.90;;;;;;4971008;28;20467;-50
2021/04/17 00:43:03;;;;;;;3.93;1.77;;;7.90;99.90;;;;;;4976516;28;20782;-50
2021/04/17 00:45:30;;;;;;;2.90;1.07;;;7.90;99.90;;;;;;4976290;28;20447;-49
2021/04/17 00:47:56;;;;;;;1.83;1.10;;;8.00;99.90;;;;;;4976337;28;20462;-53
2021/04/17 00:50:25;;;;;;;1.70;1.40;;;8.00;99.90;;;;;;4976165;28;20483;-51
2021/04/17 00:52:51;;;;;;;2.93;1.57;;;8.00;99.90;;;;;;4975979;28;20883;-55
2021/04/17 00:55:17;;;;;;;2.77;1.47;;;8.10;99.90;;;;;;4976102;28;20458;-55
2021/04/17 00:57:46;;;;;;;1.97;1.20;;;8.10;99.90;;;;;;4975889;28;20474;-53
2021/04/17 01:00:14;;;;;;;4.60;2.23;;;8.10;99.90;;;;;;4975989;28;20447;-53
2021/04/17 01:02:47;;;;;;;2.60;0.90;;;8.00;99.90;;;;;;4976036;28;21018;-50
2021/04/17 01:05:16;;;;;;;3.50;1.40;;;8.00;99.90;;;;;;4975882;28;20442;-53
2021/04/17 01:07:46;;;;;;;1.73;1.20;;;8.10;99.90;;;;;;4975884;28;20514;-53
2021/04/17 01:10:19;;;;;;;2.70;1.23;;;8.10;99.90;;;;;;4975860;28;20495;-51
2021/04/17 01:12:51;;;;;;;2.60;1.20;;;8.10;99.90;;;;;;4976113;28;20439;-54
2021/04/17 01:15:19;;;;;;;3.80;1.63;;;8.10;99.90;;;;;;4975625;28;20522;-54
2021/04/17 01:17:48;;;;;;;2.97;1.40;;;8.10;99.90;;;;;;4974939;28;20932;-50
2021/04/17 01:20:20;;;;;;;3.90;1.20;;;8.10;99.90;;;;;;4976275;28;20463;-51
2021/04/17 01:22:54;;;;;;;2.57;1.10;;;8.00;99.90;;;;;;4975157;29;20464;-51
2021/04/17 01:25:23;;;;;;;3.67;1.50;;;8.00;99.90;;;;;;4975388;29;20486;-50
2021/04/17 01:27:50;;;;;;;5.47;1.20;;;8.00;99.90;;;;;;4975409;29;20476;-54
2021/04/17 01:30:18;;;;;;;2.50;1.37;;;8.00;99.90;;;;;;4975802;29;21178;-47
2021/04/17 01:32:47;;;;;;;2.57;1.40;;;8.00;99.90;;;;;;4975755;29;20459;-52
2021/04/17 01:35:16;;;;;;;3.20;1.00;;;8.00;99.90;;;;;;4977976;28;20543;-48
2021/04/17 01:38:09;;;;;;;2.40;1.30;;;8.00;99.90;;;;;;4969929;28;20471;-51
2021/04/17 01:40:37;;;;;;;1.87;1.03;;;8.10;99.90;;;;;;4956513;29;20510;-47
2021/04/17 01:43:05;;;;;;;2.63;1.77;;;8.10;99.90;;;;;;4956567;29;20474;-50
2021/04/17 01:45:32;;;;;;;2.73;1.20;;;8.00;99.90;;;;;;4956865;28;20451;-49
2021/04/17 01:48:01;;;;;;;2.90;1.10;;;7.90;99.90;;;;;;4958164;28;20592;-46
2021/04/17 01:50:30;;;;;;;5.37;1.30;;;7.90;99.90;;;;;;4956054;29;20852;-48
2021/04/17 01:52:58;;;;;;;2.30;1.20;;;7.90;99.90;;;;;;4955614;29;20484;-47
2021/04/17 01:55:24;;;;;;;2.50;1.17;;;7.90;99.90;;;;;;4955562;29;20471;-53
2021/04/17 01:57:51;;;;;;;2.60;1.10;;;7.80;99.90;;;;;;4955763;29;20448;-50
2021/04/17 02:00:20;;;;;;;3.30;1.17;;;7.80;99.90;;;;;;4955721;29;20943;-47
2021/04/17 02:02:46;;;;;;;3.50;1.53;;;7.70;99.90;;;;;;4955982;29;20459;-55
2021/04/17 02:05:13;;;;;;;1.70;1.33;;;7.70;99.90;;;;;;4955717;29;20468;-52
2021/04/17 02:07:40;;;;;;;4.23;1.30;;;7.70;99.90;;;;;;4955862;29;20470;-50
2021/04/17 02:10:08;;;;;;;2.40;1.10;;;7.70;99.90;;;;;;4955491;29;20483;-50
2021/04/17 02:12:34;;;;;;;3.00;0.90;;;7.80;99.90;;;;;;4955456;29;20459;-52
2021/04/17 02:15:01;;;;;;;2.50;1.23;;;7.70;99.90;;;;;;4955622;29;20459;-49
2021/04/17 02:17:34;;;;;;;2.00;1.10;;;7.70;99.90;;;;;;4955725;29;20842;-50
2021/04/17 02:20:05;;;;;;;3.63;1.67;;;7.70;99.90;;;;;;4955808;29;20436;-53
2021/04/17 02:22:32;;;;;;;3.33;1.00;;;7.70;99.90;;;;;;4955582;29;20471;-52
2021/04/17 02:25:01;;;;;;;4.37;1.40;;;7.70;99.90;;;;;;4955505;29;20435;-55
2021/04/17 02:27:27;;;;;;;3.10;1.30;;;7.70;99.90;;;;;;4955392;29;20932;-52
2021/04/17 02:29:55;;;;;;;3.50;1.40;;;7.70;99.90;;;;;;4957589;28;20764;-54
2021/04/17 02:32:22;;;;;;;3.40;1.77;;;7.70;99.90;;;;;;4959485;29;20451;-52
2021/04/17 02:34:49;;;;;;;2.33;1.00;;;7.70;99.90;;;;;;4959275;29;20506;-51
2021/04/17 02:37:16;;;;;;;2.23;1.03;;;7.70;99.90;;;;;;4959426;29;20781;-52
2021/04/17 02:39:42;;;;;;;2.30;1.30;;;7.80;99.90;;;;;;4959324;29;20837;-54
2021/04/17 02:42:12;;;;;;;2.33;1.07;;;7.80;99.90;;;;;;4958922;29;20479;-52
2021/04/17 02:44:39;;;;;;;3.23;1.10;;;7.80;99.90;;;;;;4958861;29;20948;-49
2021/04/17 02:47:05;;;;;;;3.77;1.80;;;7.80;99.90;;;;;;4958956;29;20527;-50
2021/04/17 02:49:32;;;;;;;2.73;1.40;;;7.80;99.90;;;;;;4958971;29;20929;-54
2021/04/17 02:51:59;;;;;;;2.00;1.10;;;7.80;99.90;;;;;;4958889;29;20491;-49
2021/04/17 02:54:26;;;;;;;4.50;1.40;;;7.90;99.90;;;;;;4959088;29;20447;-48
2021/04/17 02:56:52;;;;;;;3.37;1.60;;;7.90;99.90;;;;;;4959039;29;20468;-54
2021/04/17 02:59:19;;;;;;;4.43;1.53;;;7.90;99.90;;;;;;4958695;29;20435;-51
2021/04/17 03:01:45;;;;;;;3.97;1.10;;;7.90;99.90;;;;;;4959110;29;20538;-53
2021/04/17 03:04:11;;;;;;;4.60;2.27;;;7.80;99.90;;;;;;4958829;29;20447;-53
2021/04/17 03:06:37;;;;;;;2.43;1.13;;;7.90;99.90;;;;;;4958900;29;20465;-52
2021/04/17 03:09:05;;;;;;;2.73;1.40;;;7.90;99.90;;;;;;4958887;29;20455;-53
2021/04/17 03:11:31;;;;;;;3.83;1.30;;;7.80;99.90;;;;;;4958628;29;20487;-49
2021/04/17 03:13:58;;;;;;;2.37;1.20;;;7.90;99.90;;;;;;4958570;29;20459;-53
2021/04/17 03:16:24;;;;;;;4.10;1.40;;;7.90;99.90;;;;;;4958453;29;20455;-52
2021/04/17 03:18:50;;;;;;;2.90;2.43;;;7.90;99.90;;;;;;4958642;29;20459;-52
2021/04/17 03:21:16;;;;;;;1.60;1.00;;;7.90;99.90;;;;;;4958377;29;20913;-51
2021/04/17 03:23:42;;;;;;;1.53;1.23;;;7.90;99.90;;;;;;4962049;28;20522;-52
2021/04/17 03:57:54;;;;;;;2.50;1.50;;;8.00;99.90;;;;;;5242715;23;20491;-53
2021/04/17 04:00:22;;;;;;;4.20;1.70;;;8.00;99.90;;;;;;4977167;28;20443;-48
2021/04/17 04:02:48;;;;;;;2.50;1.43;;;8.10;99.90;;;;;;4996534;28;20558;-47
2021/04/17 04:05:16;;;;;;;7.90;2.13;;;8.10;99.90;;;;;;4996213;28;20462;-50
2021/04/17 04:07:42;;;;;;;2.73;1.70;;;8.20;99.90;;;;;;4996270;28;20533;-50
2021/04/17 04:10:11;;;;;;;2.60;1.43;;;8.10;99.90;;;;;;4996180;28;20458;-48
2021/04/17 04:12:39;;;;;;;2.80;1.37;;;8.00;99.90;;;;;;4996487;28;20458;-52
2021/04/17 04:15:07;;;;;;;3.03;1.43;;;8.00;99.90;;;;;;4996144;28;20446;-53
2021/04/17 04:17:33;;;;;;;2.60;1.47;;;8.00;99.90;;;;;;4996217;28;20442;-52
2021/04/17 04:20:00;;;;;;;3.53;2.13;;;8.00;99.90;;;;;;4996391;28;20457;-47
2021/04/17 04:22:26;;;;;;;4.83;1.90;;;8.00;99.90;;;;;;4996125;28;20500;-50
2021/04/17 04:24:52;;;;;;;3.70;1.90;;;8.00;99.90;;;;;;4996269;28;20446;-46
2021/04/17 04:27:18;;;;;;;4.30;2.40;;;8.10;99.90;;;;;;4995891;28;20516;-52
2021/04/17 04:29:44;;;;;;;4.27;1.33;;;8.10;99.90;;;;;;4995777;28;20458;-48
2021/04/17 04:32:11;;;;;;;2.50;1.23;;;8.00;99.90;;;;;;4995671;28;20828;-50
2021/04/17 04:34:38;;;;;;;1.60;1.27;;;8.00;99.90;;;;;;4995990;28;20520;-46
2021/04/17 04:37:04;;;;;;;3.00;1.50;;;8.00;99.90;;;;;;4995944;28;20453;-53
2021/04/17 04:39:30;;;;;;;3.87;1.83;;;8.00;99.90;;;;;;4995683;28;20620;-46
2021/04/17 04:41:56;;;;;;;4.40;1.93;;;8.00;99.90;;;;;;4995803;28;20524;-54
2021/04/17 04:44:22;;;;;;;5.83;1.40;;;8.10;99.90;;;;;;4995229;28;20473;-49
2021/04/17 04:46:49;;;;;;;2.23;1.63;;;8.10;99.90;;;;;;4995721;28;20457;-48
2021/04/17 04:49:16;;;;;;;3.57;1.60;;;8.10;99.90;;;;;;4995766;28;20512;-51
2021/04/17 04:51:42;;;;;;;2.40;1.50;;;8.10;99.90;;;;;;4995391;28;20493;-48
2021/04/17 04:54:08;;;;;;;9.00;2.40;;;8.10;99.90;;;;;;4995382;28;20461;-54
2021/04/17 04:56:34;;;;;;;3.73;1.40;;;8.10;99.90;;;;;;4995075;28;21013;-51
2021/04/17 04:59:00;;;;;;;3.87;1.90;;;8.10;99.90;;;;;;4995407;28;20463;-47
2021/04/17 05:01:27;;;;;;;1.50;1.17;;;8.10;99.90;;;;;;4995455;28;20516;-51
2021/04/17 05:03:53;;;;;;;2.90;1.77;;;8.10;99.90;;;;;;4995202;28;20906;-47
2021/04/17 05:06:20;;;;;;;5.00;1.60;;;8.10;99.90;;;;;;4995327;28;20442;-47
2021/04/17 05:08:46;;;;;;;1.97;1.27;;;8.20;99.90;;;;;;4995193;28;20466;-54
2021/04/17 05:11:12;;;;;;;6.87;1.53;;;8.20;99.90;;;;;;4995313;28;20808;-54
2021/04/17 05:13:38;;;;;;;1.83;1.23;;;8.20;99.90;;;;;;4994994;28;20775;-51
2021/04/17 05:16:05;;;;;;;3.10;1.10;;;8.20;99.90;;;;;;4995295;28;20442;-51
2021/04/17 05:18:31;;;;;;;1.87;1.27;;;8.30;99.90;;;;;;4995283;28;20454;-52
2021/04/17 05:20:58;;;;;;;2.90;1.20;;;8.30;99.90;;;;;;4995031;28;20454;-48
2021/04/17 05:23:24;;;;;;;2.93;1.80;;;8.30;99.90;;;;;;4995229;28;20441;-53
2021/04/17 05:25:51;;;;;;;3.70;1.40;;;8.30;99.90;;;;;;4994824;28;20803;-50
2021/04/17 05:28:17;;;;;;;3.67;1.33;;;8.30;99.90;;;;;;4995059;28;20438;-50
2021/04/17 05:30:43;;;;;;;3.20;0.90;;;8.20;99.90;;;;;;4994863;28;20805;-52
2021/04/17 05:33:09;;;;;;;1.63;1.13;;;8.30;99.90;;;;;;4994724;28;20521;-50
2021/04/17 05:35:35;;;;;;;8.83;1.80;;;8.30;99.90;;;;;;4994625;28;20930;-47
2021/04/17 05:38:01;;;;;;;3.37;1.50;;;8.30;99.90;;;;;;4994456;28;20450;-51
2021/04/17 05:40:28;;;;;;;4.17;1.70;;;8.20;99.90;;;;;;4994611;28;20998;-51
2021/04/17 05:42:54;;;;;;;7.17;1.47;;;8.20;99.90;;;;;;4994529;28;20481;-51
2021/04/17 05:45:21;;;;;;;3.17;1.50;;;8.20;99.90;;;;;;4994801;28;20462;-50
2021/04/17 05:47:47;;;;;;;2.30;1.20;;;8.20;99.90;;;;;;4994724;28;20481;-48
2021/04/17 05:50:13;;;;;;;3.20;1.40;;;8.20;99.90;;;;;;4994480;28;20454;-46
2021/04/17 05:52:39;;;;;;;3.30;1.50;;;8.20;99.90;;;;;;4994728;28;20450;-52
2021/04/17 05:55:07;;;;;;;3.03;1.93;;;8.20;99.90;;;;;;4994600;28;20465;-51
2021/04/17 05:57:34;;;;;;;1.83;1.20;;;8.20;99.90;;;;;;5006867;28;20477;-53
2021/04/17 06:00:00;;;;;;;4.80;1.43;;;8.20;99.90;;;;;;5018048;28;20449;-54
2021/04/17 06:02:26;;;;;;;4.53;1.30;;;8.20;99.90;;;;;;5017534;28;20449;-53
2021/04/17 06:04:52;;;;;;;1.67;0.93;;;8.20;99.90;;;;;;5021804;28;20441;-54
2021/04/17 06:07:18;;;;;;;3.00;1.77;;;8.20;99.90;;;;;;5025013;28;20430;-53
2021/04/17 06:09:45;;;;;;;4.93;1.53;;;8.20;99.90;;;;;;5024430;28;20446;-52
2021/04/17 06:12:12;;;;;;;2.13;1.30;;;8.20;99.90;;;;;;5023753;28;20457;-48
2021/04/17 06:14:39;;;;;;;2.67;1.57;;;8.20;99.90;;;;;;5023788;28;20482;-46
2021/04/17 06:17:05;;;;;;;3.00;1.70;;;8.20;99.90;;;;;;5024385;28;20442;-46
2021/04/17 06:19:31;;;;;;;1.50;1.30;;;8.20;99.90;;;;;;5025099;28;20418;-50
2021/04/17 06:21:58;;;;;;;5.60;1.73;;;8.20;99.90;;;;;;5024919;28;20469;-52
2021/04/17 06:24:24;;;;;;;2.13;1.30;;;8.20;99.90;;;;;;5024828;28;20735;-57
2021/04/17 06:26:50;;;;;;;4.70;2.67;;;8.20;99.90;;;;;;5024144;28;20425;-51
2021/04/17 06:29:16;;;;;;;6.13;1.77;;;8.20;99.90;;;;;;5024036;28;20457;-54
2021/04/17 06:31:43;;;;;;;8.27;2.07;;;8.20;99.90;;;;;;5023758;28;20465;-54
2021/04/17 06:34:09;;;;;;;7.87;1.33;;;8.20;99.90;;;;;;5023812;28;20442;-54
2021/04/17 06:36:37;;;;;;;4.53;2.13;;;8.20;99.90;;;;;;5023405;28;20500;-54
2021/04/17 06:39:05;;;;;;;3.40;1.60;;;8.20;99.90;;;;;;5023510;28;20446;-54
2021/04/17 06:41:33;;;;;;;7.87;1.90;;;8.20;99.90;;;;;;5024040;28;20469;-52
2021/04/17 06:44:01;;;;;;;3.63;1.60;;;8.20;99.90;;;;;;5023607;28;20501;-46
2021/04/17 06:46:30;;;;;;;2.83;1.37;;;8.20;99.90;;;;;;5023258;28;20475;-47
2021/04/17 06:49:00;;;;;;;4.73;2.00;;;8.20;99.90;;;;;;5023533;28;20442;-50
2021/04/17 06:51:26;;;;;;;4.83;1.60;;;8.20;99.90;;;;;;5023316;28;20480;-53
2021/04/17 06:53:53;;;;;;;3.60;1.33;;;8.20;99.90;;;;;;5023385;28;20453;-54
2021/04/17 06:56:23;;;;;;;1.77;1.33;;;8.30;99.90;;;;;;5023516;28;20448;-51
2021/04/17 06:58:49;;;;;;;2.60;1.57;;;8.30;99.90;;;;;;5023608;28;20406;-52
2021/04/17 07:01:16;;;;;;;9.83;2.30;;;8.30;99.90;;;;;;5023370;28;20501;-53
2021/04/17 07:03:42;;;;;;;5.43;1.73;;;8.30;99.90;;;;;;5023744;28;20433;-52
2021/04/17 07:06:09;;;;;;;2.83;1.60;;;8.40;99.90;;;;;;5023147;28;20445;-52
2021/04/17 07:08:39;;;;;;;4.23;1.60;;;8.40;99.90;;;;;;5023574;28;20457;-52
2021/04/17 07:11:05;;;;;;;4.10;1.83;;;8.40;99.90;;;;;;5023618;28;20481;-52
2021/04/17 07:13:34;;;;;;;5.80;2.10;;;8.40;99.90;;;;;;5023721;28;20449;-52
2021/04/17 07:16:09;;;;;;;3.50;1.80;;;8.40;99.90;;;;;;5020904;28;20469;-53
2021/04/17 07:18:36;;;;;;;6.83;1.43;;;8.40;99.90;;;;;;5020671;28;20458;-49
2021/04/17 07:21:26;;;;;;;2.33;1.50;;;8.40;99.90;;;;;;5020575;28;20438;-53
2021/04/17 07:23:53;;;;;;;2.70;1.50;;;8.40;99.90;;;;;;5012821;28;20460;-53
2021/04/17 07:26:22;;;;;;;6.27;2.03;;;8.40;99.90;;;;;;5020381;28;20457;-53
2021/04/17 07:29:00;;;;;;;9.80;2.67;;;8.50;99.90;;;;;;5019929;28;20426;-53
2021/04/17 07:31:27;;;;;;;2.77;1.20;;;8.50;99.90;;;;;;5020120;28;20477;-52
2021/04/17 07:33:56;;;;;;;6.07;2.07;;;8.50;99.90;;;;;;5020046;28;20429;-51
2021/04/17 07:36:23;;;;;;;3.87;1.70;;;8.60;99.90;;;;;;5020379;28;20414;-51
2021/04/17 07:38:50;;;;;;;4.53;1.60;;;8.60;99.90;;;;;;5020283;28;20430;-53
2021/04/17 07:41:19;;;;;;;3.53;2.07;;;8.70;99.90;;;;;;5020676;28;20442;-48
2021/04/17 07:43:48;;;;;;;7.17;1.83;;;8.80;99.90;;;;;;5020214;28;20457;-50
2021/04/17 07:46:14;;;;;;;4.53;2.07;;;8.90;99.90;;;;;;5020348;28;20450;-53
2021/04/17 07:48:42;;;;;;;10.00;2.27;;;8.90;99.90;;;;;;5020367;28;20442;-52
2021/04/17 07:51:11;;;;;;;9.63;3.00;;;8.90;99.90;;;;;;5020026;28;20470;-49
2021/04/17 07:53:39;;;;;;;3.63;2.10;;;9.00;99.90;;;;;;5020052;28;20477;-52
2021/04/17 07:56:27;;;;;;;3.70;2.00;;;9.00;99.90;;;;;;5020359;28;20456;-56
2021/04/17 07:58:56;;;;;;;6.23;2.07;;;9.00;99.90;;;;;;5020308;28;20473;-50
2021/04/17 08:01:24;;;;;;;6.93;3.03;;;9.10;99.90;;;;;;5020323;28;20453;-52
2021/04/17 08:03:54;;;;;;;6.60;2.10;;;9.10;99.90;;;;;;5019905;28;20458;-53
2021/04/17 08:06:21;;;;;;;6.37;1.73;;;9.20;99.90;;;;;;5020118;28;20426;-50
2021/04/17 08:08:49;;;;;;;3.80;2.10;;;9.20;99.90;;;;;;5019783;28;20434;-52
2021/04/17 08:11:18;;;;;;;6.50;2.17;;;9.30;99.90;;;;;;5019721;28;20470;-49
2021/04/17 08:13:45;;;;;;;4.47;2.17;;;9.50;99.90;;;;;;5019621;28;20794;-49
2021/04/17 08:16:12;;;;;;;4.80;2.70;;;9.60;99.90;;;;;;5019592;28;20504;-49
2021/04/17 08:18:39;;;;;;;6.33;2.53;;;9.70;99.90;;;;;;5019788;28;20446;-48
2021/04/17 08:21:06;;;;;;;7.37;2.20;;;9.80;99.90;;;;;;5019450;28;20437;-46
2021/04/17 08:23:33;;;;;;;4.13;1.87;;;9.90;99.90;;;;;;5019633;28;20434;-50
2021/04/17 08:26:00;;;;;;;4.60;1.77;;;9.90;99.90;;;;;;5019910;28;20434;-51
2021/04/17 08:28:27;;;;;;;10.00;2.40;;;9.90;99.90;;;;;;5019823;28;20450;-46
2021/04/17 08:31:23;;;;;;;7.70;2.50;;;10.10;99.90;;;;;;5019823;28;20485;-50
2021/04/17 08:34:06;;;;;;;7.43;2.37;;;10.10;99.90;;;;;;5019620;28;20506;-50
2021/04/17 08:36:34;;;;;;;7.50;2.00;;;10.20;99.90;;;;;;5019990;28;20429;-53
2021/04/17 08:39:00;;;;;;;6.00;2.13;;;10.30;99.90;;;;;;5019645;28;20440;-49
2021/04/17 08:41:41;;;;;;;6.50;2.40;;;10.50;99.90;;;;;;5019714;28;20521;-56
2021/04/17 08:44:27;;;;;;;8.67;2.63;;;10.70;99.90;;;;;;5018260;28;20460;-52
2021/04/17 08:46:55;;;;;;;6.47;1.90;;;11.00;99.90;;;;;;5018695;28;20525;-51
2021/04/17 10:25:09;;;;;;;6.60;2.90;;;16.60;90.80;;;;;;5529750;23;20510;-47
2021/04/17 10:27:37;;;;;;;7.63;3.60;;;17.10;90.00;;;;;;4997026;28;20431;-46
2021/04/17 10:30:16;;;;;;;4.77;3.00;;;17.70;88.00;;;;;;4997510;28;20451;-46
2021/04/17 10:35:35;;;;;;;7.23;2.80;;;18.50;79.00;;;;;;5044125;23;20994;-51
2021/04/17 10:38:11;;;;;;;9.60;4.80;;;18.90;77.10;;;;;;4979571;28;20510;-51
2021/04/17 10:40:48;;;;;;;6.20;3.93;;;19.10;74.30;;;;;;4992487;28;20450;-48
2021/04/17 10:43:16;;;;;;;7.07;3.50;;;18.80;73.80;;;;;;4998788;28;20462;-53
2021/04/17 10:45:43;;;;;;;9.20;4.10;;;18.40;74.40;;;;;;4998833;28;20474;-53
2021/04/17 10:48:13;;;;;;;9.30;4.07;;;18.00;74.80;;;;;;4974056;28;21023;-49
2021/04/17 11:03:44;;;;;;;6.30;3.60;;;15.40;86.40;;;;;;5126997;23;20565;-55
2021/04/17 11:06:14;;;;;;;5.73;3.77;;;15.40;87.20;;;;;;4981453;28;20526;-48
2021/04/17 11:08:42;;;;;;;7.53;3.47;;;15.30;87.30;;;;;;4981574;28;20541;-46
2021/04/17 11:11:09;;;;;;;6.20;3.23;;;15.30;88.50;;;;;;4980766;28;20578;-49
2021/04/17 11:13:37;;;;;;;9.97;3.30;;;15.30;88.40;;;;;;4989061;28;20463;-52
2021/04/17 11:16:04;;;;;;;4.70;3.50;;;15.40;88.80;;;;;;4990412;28;20967;-52
2021/04/17 11:18:36;;;;;;;9.43;5.60;;;15.50;89.10;;;;;;4971545;28;20448;-51
2021/04/17 11:21:06;;;;;;;6.47;4.43;;;15.60;88.70;;;;;;4961072;28;20443;-51
2021/04/17 11:23:39;;;;;;;8.73;4.43;;;15.70;88.70;;;;;;4991874;28;20419;-45
2021/04/17 11:26:11;;;;;;;8.50;4.17;;;15.70;88.10;;;;;;5011613;28;20490;-49
2021/04/17 11:28:40;;;;;;;9.23;4.17;;;15.80;88.80;;;;;;5020228;28;20430;-46
2021/04/17 11:31:23;;;;;;;7.13;4.43;;;15.80;89.30;;;;;;5008407;28;20463;-53
2021/04/17 11:33:52;;;;;;;7.70;4.90;;;15.90;89.40;;;;;;5000946;28;20458;-51
2021/04/17 11:36:22;;;;;;;6.10;3.97;;;16.10;89.60;;;;;;5000798;28;20896;-51
2021/04/17 11:38:49;;;;;;;6.00;4.07;;;16.20;88.50;;;;;;4990827;28;20449;-54
2021/04/17 11:41:17;;;;;;;8.17;4.40;;;16.30;88.10;;;;;;5001636;28;20451;-51
2021/04/17 11:43:44;;;;;;;6.53;4.00;;;16.30;88.20;;;;;;5000208;28;20487;-51
2021/04/17 11:46:12;;;;;;;8.53;5.17;;;16.40;88.00;;;;;;5000380;28;20554;-52
2021/04/17 11:59:01;;;;;;;8.83;4.20;;;15.60;88.60;;;;;;5989418;23;20398;-48
2021/04/17 12:01:27;;;;;;;8.80;5.17;;;15.40;89.90;;;;;;4993633;28;20536;-53
2021/04/17 12:03:53;;;;;;;5.67;3.90;;;15.20;90.70;;;;;;4992472;28;20451;-50
2021/04/17 12:06:25;;;;;;;10.30;5.00;;;15.10;91.20;;;;;;4989839;28;20539;-54
2021/04/17 12:08:53;;;;;;;9.63;3.90;;;14.90;91.70;;;;;;4990708;28;20450;-47
2021/04/17 12:11:19;;;;;;;6.30;4.90;;;14.80;91.60;;;;;;4991503;28;20544;-48
2021/04/17 12:13:45;;;;;;;12.33;4.47;;;14.80;92.00;;;;;;4984569;28;20455;-49
2021/04/17 12:16:13;;;;;;;7.20;4.27;;;14.80;92.10;;;;;;4986678;28;20458;-45
2021/04/17 12:18:40;;;;;;;7.17;5.10;;;14.80;92.10;;;;;;4984900;28;20458;-53
2021/04/17 12:21:07;;;;;;;5.53;3.90;;;14.90;91.80;;;;;;4968238;28;20440;-53
2021/04/17 15:38:47;;;;;;;9.10;4.13;;;15.30;97.90;;;;;;5097914;23;20476;-58
2021/04/17 15:41:13;;;;;;;8.77;4.83;;;15.30;98.00;;;;;;4994289;28;20450;-54
2021/04/17 15:43:40;;;;;;;5.00;4.07;;;15.30;98.20;;;;;;5045664;23;20477;-54
2021/04/17 15:46:10;;;;;;;12.83;5.17;;;15.40;98.10;;;;;;5008187;28;20469;-49
2021/04/17 15:48:37;;;;;;;8.13;4.60;;;15.40;98.20;;;;;;5011988;28;20438;-53
2021/04/17 15:51:04;;;;;;;6.63;4.97;;;15.50;97.90;;;;;;5012685;28;20462;-48
2021/04/17 15:53:31;;;;;;;10.00;4.83;;;15.40;97.80;;;;;;5017965;28;20456;-54
2021/04/17 15:55:59;;;;;;;10.70;5.60;;;15.40;97.60;;;;;;4997886;28;20454;-53
2021/04/17 16:24:20;;;;;;;14.77;6.10;;;15.40;99.00;;;;;;5594345;23;20492;-50
2021/04/17 16:37:08;;;;;;;5.60;4.80;;;15.30;99.80;;;;;;5845289;23;20545;-48
2021/04/17 16:39:36;;;;;;;6.87;5.10;;;15.20;99.60;;;;;;4965732;28;20484;-51
2021/04/17 16:52:33;;;;;;;11.03;5.93;;;15.10;99.90;;;;;;5493286;23;20479;-52
2021/04/17 16:55:01;;;;;;;7.57;5.17;;;15.20;99.90;;;;;;4977552;28;20798;-49
2021/04/17 16:57:27;;;;;;;10.93;6.67;;;15.20;99.90;;;;;;4987529;28;20459;-47
2021/04/17 16:59:53;;;;;;;9.20;5.40;;;15.20;99.90;;;;;;4983165;28;20443;-48
2021/04/17 17:02:20;;;;;;;10.87;5.50;;;15.20;99.90;;;;;;4976871;28;20474;-46
2021/04/17 17:12:33;;;;;;;13.30;5.77;;;15.40;99.40;;;;;;5809520;23;20478;-48
2021/04/17 17:20:04;;;;;;;10.00;4.50;;;15.60;98.30;;;;;;4989445;28;20467;-53
2021/04/17 17:43:15;;;;;;;9.50;4.33;;;15.40;96.80;;;;;;5894354;23;20391;-47
2021/04/17 17:45:41;;;;;;;13.23;4.87;;;15.30;97.30;;;;;;4957591;29;20432;-46
2021/04/17 17:48:08;;;;;;;11.80;4.57;;;15.30;97.20;;;;;;4941690;29;20464;-49
2021/04/17 19:19:56;;;;;;;9.10;5.27;;;13.40;99.90;;;;;;5011989;23;20360;-53
2021/04/17 19:22:22;;;;;;;11.80;5.33;;;13.30;99.90;;;;;;4982767;28;20443;-49
2021/04/17 19:24:49;;;;;;;10.20;5.10;;;13.20;99.90;;;;;;4983668;28;20462;-51
2021/04/17 19:27:16;;;;;;;15.67;6.27;;;13.00;99.90;;;;;;4983318;28;20498;-50
2021/04/17 19:29:43;;;;;;;10.53;6.10;;;13.00;99.90;;;;;;4983173;28;20479;-48
2021/04/17 19:32:10;;;;;;;8.20;6.10;;;12.90;99.90;;;;;;4984018;28;20501;-46
2021/04/17 19:34:36;;;;;;;12.40;6.20;;;12.90;99.90;;;;;;4984178;28;20457;-50
2021/04/17 19:37:06;;;;;;;12.13;5.70;;;12.80;99.90;;;;;;4983693;28;20723;-49
2021/04/17 19:39:33;;;;;;;12.80;7.20;;;12.70;99.90;;;;;;4984104;28;20488;-53
2021/04/17 19:42:00;;;;;;;7.67;5.20;;;12.70;99.90;;;;;;4983247;28;20455;-49
2021/04/17 19:44:26;;;;;;;9.63;5.17;;;12.50;99.90;;;;;;4983813;28;20479;-52
2021/04/17 19:46:53;;;;;;;18.30;7.70;;;12.40;99.90;;;;;;4983148;28;20459;-49
2021/04/17 19:49:19;;;;;;;8.73;6.10;;;12.40;99.90;;;;;;4984200;28;20446;-51
2021/04/17 19:51:47;;;;;;;11.53;5.90;;;12.30;99.90;;;;;;4983312;28;20521;-54
2021/04/17 19:54:14;;;;;;;10.10;5.77;;;12.10;99.90;;;;;;4984179;28;20455;-54
2021/04/17 19:56:41;;;;;;;10.77;6.60;;;12.00;99.90;;;;;;4983739;28;20459;-51
2021/04/17 19:59:07;;;;;;;12.33;6.80;;;12.00;99.90;;;;;;4984639;28;20447;-48
2021/04/17 20:01:35;;;;;;;17.90;7.03;;;11.90;99.90;;;;;;4983853;28;20447;-52
2021/04/17 20:04:03;;;;;;;11.70;6.60;;;11.90;99.90;;;;;;4983800;28;20467;-51
2021/04/17 20:06:30;;;;;;;10.70;7.47;;;11.80;99.90;;;;;;4983985;28;20446;-50
2021/04/17 20:08:56;;;;;;;12.70;6.57;;;11.80;99.90;;;;;;4984134;28;20537;-51
2021/04/17 20:11:24;;;;;;;7.70;6.40;;;11.70;99.90;;;;;;4983583;28;20904;-52
2021/04/17 20:13:51;;;;;;;9.83;5.87;;;11.70;99.90;;;;;;4983689;28;20450;-50
2021/04/17 20:16:19;;;;;;;12.17;7.17;;;11.70;99.90;;;;;;4983369;28;20559;-53
2021/04/17 20:18:46;;;;;;;12.30;7.77;;;11.60;99.90;;;;;;4974464;28;20522;-52
2021/04/17 20:21:16;;;;;;;13.50;7.20;;;11.60;99.90;;;;;;4964564;29;20458;-51
2021/04/17 20:23:43;;;;;;;13.83;7.43;;;11.60;99.90;;;;;;4964236;28;20442;-48
2021/04/17 20:26:10;;;;;;;10.50;6.67;;;11.50;99.90;;;;;;4964757;29;20517;-50
2021/04/17 20:28:37;;;;;;;12.00;8.13;;;11.50;99.90;;;;;;4964577;29;20487;-55
2021/04/17 20:31:04;;;;;;;9.60;7.20;;;11.50;99.90;;;;;;4964230;29;20470;-52
2021/04/17 20:33:31;;;;;;;17.20;7.63;;;11.40;99.90;;;;;;4963653;29;20483;-46
2021/04/17 20:35:57;;;;;;;16.57;8.50;;;11.50;99.90;;;;;;4964295;29;20467;-53
2021/04/17 20:38:24;;;;;;;13.77;7.33;;;11.40;99.90;;;;;;4963909;29;20460;-51
2021/04/17 20:40:50;;;;;;;13.30;7.97;;;11.40;99.90;;;;;;4963493;29;20452;-53
2021/04/17 20:43:16;;;;;;;11.70;7.07;;;11.40;99.90;;;;;;4963988;29;20507;-51
2021/04/17 20:45:44;;;;;;;13.00;7.37;;;11.40;99.90;;;;;;4963485;29;20924;-49
2021/04/17 20:48:11;;;;;;;12.73;8.20;;;11.50;99.90;;;;;;4963996;29;20522;-52
2021/04/17 20:50:37;;;;;;;10.80;7.33;;;11.50;99.90;;;;;;4963340;29;20466;-52
2021/04/17 20:53:04;;;;;;;17.53;9.30;;;11.50;99.90;;;;;;4963858;29;20483;-49
2021/04/17 20:55:31;;;;;;;11.40;7.97;;;11.40;99.90;;;;;;4964179;29;20444;-50
2021/04/17 20:57:57;;;;;;;15.40;8.47;;;11.40;99.90;;;;;;4964051;29;20484;-51
2021/04/17 21:00:24;;;;;;;22.17;9.67;;;11.40;99.90;;;;;;4964177;29;20458;-49
2021/04/17 21:02:51;;;;;;;14.73;8.67;;;11.40;99.90;;;;;;4965168;29;20591;-51
2021/04/17 21:05:18;;;;;;;12.97;8.27;;;11.30;99.90;;;;;;4964422;29;20455;-49
2021/04/17 21:07:44;;;;;;;10.90;7.60;;;11.30;99.90;;;;;;4964301;29;20448;-47
2021/04/17 21:10:11;;;;;;;8.63;6.10;;;11.20;99.90;;;;;;4964431;29;20455;-51
2021/04/17 21:12:38;;;;;;;13.03;7.17;;;11.20;99.90;;;;;;4963714;29;20504;-47
2021/04/17 21:15:06;;;;;;;17.80;6.97;;;11.10;99.90;;;;;;4963986;29;20460;-48
2021/04/17 21:17:33;;;;;;;17.20;7.50;;;11.10;99.90;;;;;;4964038;29;20451;-49
2021/04/17 21:20:00;;;;;;;9.23;6.10;;;11.00;99.90;;;;;;4981964;28;20498;-50
2021/04/17 21:22:27;;;;;;;18.17;7.30;;;11.00;99.90;;;;;;4982965;28;20474;-53
2021/04/17 21:24:55;;;;;;;10.93;7.10;;;10.90;99.90;;;;;;4983129;28;20443;-48
2021/04/17 21:27:22;;;;;;;13.80;6.57;;;10.80;99.90;;;;;;4983289;28;20490;-51
2021/04/17 21:29:48;;;;;;;9.53;6.30;;;10.70;99.90;;;;;;4983539;28;20479;-51
2021/04/17 21:32:15;;;;;;;15.47;6.60;;;10.60;99.90;;;;;;4983291;28;20526;-51